OSKL

Details ICAO OSKL (KAC)
Name KAMISHLY
Region Syria
Timezone Asia/Damascus (UTC+2.0)
Plans Departing 8
Arriving 8
Stats Elevation 1,480 ft / 451 m (AMSL)
Location 37.020628° 41.191401°
Runways 1
Magnetic Variation 5.463° E
Sunrise 2017-12-15 04:22:38 UTC / 2017-12-15 06:22:38 Local
Sunset 2017-12-15 14:00:49 UTC / 2017-12-15 16:00:49 Local
Advertisement - Login to hide

Runways

ID Width Length Bearing (true) Bearing (mag) Surface Threshold Offset Overrun Length
03 150 ft / 46 m 11,870 ft / 3,618 m 38.76° 33.30° Asphalt 0 ft / 0 m 0 ft / 0 m
21 150 ft / 46 m 11,870 ft / 3,618 m 218.78° 213.32° Asphalt 0 ft / 0 m 0 ft / 0 m

Map

Weather


0- 5 10 15 20 25 30 35+ Temperature / ° C

Clouds and Precipitation
Forecast for 2017-12-15 18:00 UTC. Updated an hour ago

Ground ~20,000 ft ~40,000 ft Winds

METAR

OSKL 151400Z 18002KT CAVOK 16/M02 Q1019

TAF

Not found

Frequencies

Tower 118.22 MHz TWR
Warning: Do not use this data for real-world aviation or navigation. No guarantee of current accuracy is given.